sensor_id;sensor_type;location;lat;lon;timestamp;temperature;humidity
52731;DHT22;38624;53.242;6.974;2023-02-28T00:00:21;4.30;99.90
52731;DHT22;38624;53.242;6.974;2023-02-28T00:02:47;4.40;99.90
52731;DHT22;38624;53.242;6.974;2023-02-28T00:05:16;4.70;99.90
52731;DHT22;38624;53.242;6.974;2023-02-28T00:07:42;4.60;99.90
52731;DHT22;38624;53.242;6.974;2023-02-28T00:10:12;4.80;99.90
52731;DHT22;38624;53.242;6.974;2023-02-28T00:12:38;4.70;99.90
52731;DHT22;38624;53.242;6.974;2023-02-28T00:15:09;4.20;99.90
52731;DHT22;38624;53.242;6.974;2023-02-28T00:17:36;4.20;99.90
52731;DHT22;38624;53.242;6.974;2023-02-28T00:20:03;4.20;99.90
52731;DHT22;38624;53.242;6.974;2023-02-28T00:22:30;5.40;99.90
52731;DHT22;38624;53.242;6.974;2023-02-28T00:24:55;4.20;99.90
52731;DHT22;38624;53.242;6.974;2023-02-28T00:27:21;4.20;99.90
52731;DHT22;38624;53.242;6.974;2023-02-28T00:29:47;4.90;99.90
52731;DHT22;38624;53.242;6.974;2023-02-28T00:32:13;4.70;99.90
52731;DHT22;38624;53.242;6.974;2023-02-28T00:34:39;4.70;99.90
52731;DHT22;38624;53.242;6.974;2023-02-28T00:37:09;5.10;99.90
52731;DHT22;38624;53.242;6.974;2023-02-28T00:39:37;4.90;99.90
52731;DHT22;38624;53.242;6.974;2023-02-28T00:42:04;4.50;99.90
52731;DHT22;38624;53.242;6.974;2023-02-28T00:44:30;4.10;99.90
52731;DHT22;38624;53.242;6.974;2023-02-28T00:46:57;4.90;99.90
52731;DHT22;38624;53.242;6.974;2023-02-28T00:49:23;4.40;99.90
52731;DHT22;38624;53.242;6.974;2023-02-28T00:51:49;4.00;99.90
52731;DHT22;38624;53.242;6.974;2023-02-28T00:54:16;4.90;99.90
52731;DHT22;38624;53.242;6.974;2023-02-28T00:56:42;4.60;99.90
52731;DHT22;38624;53.242;6.974;2023-02-28T00:59:08;4.70;99.90
52731;DHT22;38624;53.242;6.974;2023-02-28T01:01:34;4.80;99.90
52731;DHT22;38624;53.242;6.974;2023-02-28T01:03:59;4.10;99.90
52731;DHT22;38624;53.242;6.974;2023-02-28T01:06:25;4.20;99.90
52731;DHT22;38624;53.242;6.974;2023-02-28T01:08:51;4.20;99.90
52731;DHT22;38624;53.242;6.974;2023-02-28T01:11:17;4.20;99.90
52731;DHT22;38624;53.242;6.974;2023-02-28T01:13:45;4.20;99.90
52731;DHT22;38624;53.242;6.974;2023-02-28T01:16:11;5.10;99.90
52731;DHT22;38624;53.242;6.974;2023-02-28T01:18:37;4.80;99.90
52731;DHT22;38624;53.242;6.974;2023-02-28T01:21:08;4.20;99.90
52731;DHT22;38624;53.242;6.974;2023-02-28T01:23:34;4.20;99.90
52731;DHT22;38624;53.242;6.974;2023-02-28T01:26:07;4.40;99.90
52731;DHT22;38624;53.242;6.974;2023-02-28T01:28:34;4.80;99.90
52731;DHT22;38624;53.242;6.974;2023-02-28T01:31:00;5.00;99.90
52731;DHT22;38624;53.242;6.974;2023-02-28T01:33:26;4.60;99.90
52731;DHT22;38624;53.242;6.974;2023-02-28T01:36:03;4.60;99.90
52731;DHT22;38624;53.242;6.974;2023-02-28T01:38:29;4.30;99.90
52731;DHT22;38624;53.242;6.974;2023-02-28T01:40:54;4.90;99.90
52731;DHT22;38624;53.242;6.974;2023-02-28T01:43:31;4.20;99.90
52731;DHT22;38624;53.242;6.974;2023-02-28T01:45:58;4.20;99.90
52731;DHT22;38624;53.242;6.974;2023-02-28T01:48:27;4.40;99.90
52731;DHT22;38624;53.242;6.974;2023-02-28T01:50:58;4.20;99.90
52731;DHT22;38624;53.242;6.974;2023-02-28T01:53:34;4.10;99.90
52731;DHT22;38624;53.242;6.974;2023-02-28T01:56:03;4.60;99.90
52731;DHT22;38624;53.242;6.974;2023-02-28T01:58:29;4.10;99.90
52731;DHT22;38624;53.242;6.974;2023-02-28T02:00:56;4.70;99.90
52731;DHT22;38624;53.242;6.974;2023-02-28T02:03:23;5.10;99.90
52731;DHT22;38624;53.242;6.974;2023-02-28T02:05:49;4.00;99.90
52731;DHT22;38624;53.242;6.974;2023-02-28T02:08:17;4.40;99.90
52731;DHT22;38624;53.242;6.974;2023-02-28T02:10:46;4.10;99.90
52731;DHT22;38624;53.242;6.974;2023-02-28T02:25:26;3.90;99.90
52731;DHT22;38624;53.242;6.974;2023-02-28T02:28:03;4.30;99.90
52731;DHT22;38624;53.242;6.974;2023-02-28T02:33:33;4.00;99.90
52731;DHT22;38624;53.242;6.974;2023-02-28T02:36:39;4.00;99.90
52731;DHT22;38624;53.242;6.974;2023-02-28T02:39:29;4.30;99.90
52731;DHT22;38624;53.242;6.974;2023-02-28T02:42:00;4.00;99.90
52731;DHT22;38624;53.242;6.974;2023-02-28T02:44:53;4.50;99.90
52731;DHT22;38624;53.242;6.974;2023-02-28T02:47:24;4.00;99.90
52731;DHT22;38624;53.242;6.974;2023-02-28T02:49:56;4.00;99.90
52731;DHT22;38624;53.242;6.974;2023-02-28T02:52:28;4.50;99.90
52731;DHT22;38624;53.242;6.974;2023-02-28T02:54:56;4.00;99.90
52731;DHT22;38624;53.242;6.974;2023-02-28T02:57:23;4.30;99.90
52731;DHT22;38624;53.242;6.974;2023-02-28T02:59:53;4.80;99.90
52731;DHT22;38624;53.242;6.974;2023-02-28T03:02:21;4.50;99.90
52731;DHT22;38624;53.242;6.974;2023-02-28T03:04:53;4.20;99.90
52731;DHT22;38624;53.242;6.974;2023-02-28T03:07:20;4.80;99.90
52731;DHT22;38624;53.242;6.974;2023-02-28T03:09:54;4.90;99.90
52731;DHT22;38624;53.242;6.974;2023-02-28T03:12:21;4.10;99.90
52731;DHT22;38624;53.242;6.974;2023-02-28T03:14:59;4.10;99.90
52731;DHT22;38624;53.242;6.974;2023-02-28T03:17:50;4.80;99.90
52731;DHT22;38624;53.242;6.974;2023-02-28T03:20:57;4.10;99.90
52731;DHT22;38624;53.242;6.974;2023-02-28T03:23:24;5.00;99.90
52731;DHT22;38624;53.242;6.974;2023-02-28T03:26:03;4.40;99.90
52731;DHT22;38624;53.242;6.974;2023-02-28T03:31:41;4.00;99.90
52731;DHT22;38624;53.242;6.974;2023-02-28T03:34:57;4.00;99.90
52731;DHT22;38624;53.242;6.974;2023-02-28T03:37:09;3.90;99.90
52731;DHT22;38624;53.242;6.974;2023-02-28T03:39:43;3.90;99.90
52731;DHT22;38624;53.242;6.974;2023-02-28T03:42:18;3.80;99.90
52731;DHT22;38624;53.242;6.974;2023-02-28T03:44:51;4.20;99.90
52731;DHT22;38624;53.242;6.974;2023-02-28T03:52:24;4.30;99.90
52731;DHT22;38624;53.242;6.974;2023-02-28T03:54:53;3.70;99.90
52731;DHT22;38624;53.242;6.974;2023-02-28T03:57:30;3.70;99.90
52731;DHT22;38624;53.242;6.974;2023-02-28T04:00:21;3.70;99.90
52731;DHT22;38624;53.242;6.974;2023-02-28T04:02:51;3.60;99.90
52731;DHT22;38624;53.242;6.974;2023-02-28T04:05:18;4.10;99.90
52731;DHT22;38624;53.242;6.974;2023-02-28T04:07:44;3.80;99.90
52731;DHT22;38624;53.242;6.974;2023-02-28T04:10:11;3.50;99.90
52731;DHT22;38624;53.242;6.974;2023-02-28T04:12:37;3.50;99.90
52731;DHT22;38624;53.242;6.974;2023-02-28T04:15:03;3.70;99.90
52731;DHT22;38624;53.242;6.974;2023-02-28T04:17:29;4.90;99.90
52731;DHT22;38624;53.242;6.974;2023-02-28T04:19:54;4.20;99.90
52731;DHT22;38624;53.242;6.974;2023-02-28T04:22:22;4.20;99.90
52731;DHT22;38624;53.242;6.974;2023-02-28T04:24:51;3.50;99.90
52731;DHT22;38624;53.242;6.974;2023-02-28T04:27:19;4.00;99.90
52731;DHT22;38624;53.242;6.974;2023-02-28T04:29:45;3.40;99.90
52731;DHT22;38624;53.242;6.974;2023-02-28T04:32:11;4.20;99.90
52731;DHT22;38624;53.242;6.974;2023-02-28T04:34:37;3.40;99.90
52731;DHT22;38624;53.242;6.974;2023-02-28T04:37:03;3.40;99.90
52731;DHT22;38624;53.242;6.974;2023-02-28T04:39:29;3.50;99.90
52731;DHT22;38624;53.242;6.974;2023-02-28T04:41:55;3.40;99.90
52731;DHT22;38624;53.242;6.974;2023-02-28T04:44:22;4.40;99.90
52731;DHT22;38624;53.242;6.974;2023-02-28T04:46:48;3.50;99.90
52731;DHT22;38624;53.242;6.974;2023-02-28T04:49:15;4.00;99.90
52731;DHT22;38624;53.242;6.974;2023-02-28T04:51:41;3.50;99.90
52731;DHT22;38624;53.242;6.974;2023-02-28T04:54:07;4.30;99.90
52731;DHT22;38624;53.242;6.974;2023-02-28T04:56:33;3.30;99.90
52731;DHT22;38624;53.242;6.974;2023-02-28T04:58:59;3.30;99.90
52731;DHT22;38624;53.242;6.974;2023-02-28T05:01:30;3.80;99.90
52731;DHT22;38624;53.242;6.974;2023-02-28T05:03:58;3.60;99.90
52731;DHT22;38624;53.242;6.974;2023-02-28T05:06:26;3.20;99.90
52731;DHT22;38624;53.242;6.974;2023-02-28T05:08:53;3.10;99.90
52731;DHT22;38624;53.242;6.974;2023-02-28T05:11:25;3.80;99.90
52731;DHT22;38624;53.242;6.974;2023-02-28T05:13:51;3.50;99.90
52731;DHT22;38624;53.242;6.974;2023-02-28T05:16:18;3.50;99.90
52731;DHT22;38624;53.242;6.974;2023-02-28T05:18:44;4.00;99.90
52731;DHT22;38624;53.242;6.974;2023-02-28T05:21:30;3.10;99.90
52731;DHT22;38624;53.242;6.974;2023-02-28T05:23:58;3.00;99.90
52731;DHT22;38624;53.242;6.974;2023-02-28T05:26:25;3.40;99.90
52731;DHT22;38624;53.242;6.974;2023-02-28T05:28:51;3.00;99.90
52731;DHT22;38624;53.242;6.974;2023-02-28T05:31:17;3.00;99.90
52731;DHT22;38624;53.242;6.974;2023-02-28T05:33:43;3.80;99.90
52731;DHT22;38624;53.242;6.974;2023-02-28T05:36:09;3.90;99.90
52731;DHT22;38624;53.242;6.974;2023-02-28T05:38:35;3.40;99.90
52731;DHT22;38624;53.242;6.974;2023-02-28T05:41:05;3.60;99.90
52731;DHT22;38624;53.242;6.974;2023-02-28T05:43:31;2.90;99.90
52731;DHT22;38624;53.242;6.974;2023-02-28T05:45:56;2.90;99.90
52731;DHT22;38624;53.242;6.974;2023-02-28T05:48:22;2.90;99.90
52731;DHT22;38624;53.242;6.974;2023-02-28T05:50:48;3.80;99.90
52731;DHT22;38624;53.242;6.974;2023-02-28T05:53:13;2.90;99.90
52731;DHT22;38624;53.242;6.974;2023-02-28T05:55:39;3.00;99.90
52731;DHT22;38624;53.242;6.974;2023-02-28T05:58:06;3.40;99.90
52731;DHT22;38624;53.242;6.974;2023-02-28T06:00:32;3.00;99.90
52731;DHT22;38624;53.242;6.974;2023-02-28T06:02:57;3.00;99.90
52731;DHT22;38624;53.242;6.974;2023-02-28T06:05:27;3.00;99.90
52731;DHT22;38624;53.242;6.974;2023-02-28T06:07:53;3.10;99.90
52731;DHT22;38624;53.242;6.974;2023-02-28T06:10:19;3.10;99.90
52731;DHT22;38624;53.242;6.974;2023-02-28T06:12:45;3.70;99.90
52731;DHT22;38624;53.242;6.974;2023-02-28T06:15:14;3.60;99.90
52731;DHT22;38624;53.242;6.974;2023-02-28T06:17:41;3.10;99.90
52731;DHT22;38624;53.242;6.974;2023-02-28T06:20:08;4.10;99.90
52731;DHT22;38624;53.242;6.974;2023-02-28T06:22:35;3.10;99.90
52731;DHT22;38624;53.242;6.974;2023-02-28T06:25:01;3.90;99.90
52731;DHT22;38624;53.242;6.974;2023-02-28T06:27:27;3.70;99.90
52731;DHT22;38624;53.242;6.974;2023-02-28T06:29:55;3.10;99.90
52731;DHT22;38624;53.242;6.974;2023-02-28T06:32:21;3.10;99.90
52731;DHT22;38624;53.242;6.974;2023-02-28T06:34:47;3.10;99.90
52731;DHT22;38624;53.242;6.974;2023-02-28T06:37:13;3.20;99.90
52731;DHT22;38624;53.242;6.974;2023-02-28T06:39:39;3.10;99.90
52731;DHT22;38624;53.242;6.974;2023-02-28T06:42:05;3.30;99.90
52731;DHT22;38624;53.242;6.974;2023-02-28T06:44:31;3.20;99.90
52731;DHT22;38624;53.242;6.974;2023-02-28T06:47:02;3.60;99.90
52731;DHT22;38624;53.242;6.974;2023-02-28T06:49:30;3.80;99.90
52731;DHT22;38624;53.242;6.974;2023-02-28T06:51:55;3.70;99.90
52731;DHT22;38624;53.242;6.974;2023-02-28T06:54:21;4.10;99.90
52731;DHT22;38624;53.242;6.974;2023-02-28T06:56:47;3.10;99.90
52731;DHT22;38624;53.242;6.974;2023-02-28T06:59:13;3.70;99.90
52731;DHT22;38624;53.242;6.974;2023-02-28T07:01:39;3.10;99.90
52731;DHT22;38624;53.242;6.974;2023-02-28T07:04:06;3.30;99.90
52731;DHT22;38624;53.242;6.974;2023-02-28T07:06:32;4.10;99.90
52731;DHT22;38624;53.242;6.974;2023-02-28T07:08:58;3.20;99.90
52731;DHT22;38624;53.242;6.974;2023-02-28T07:11:25;3.20;99.90
52731;DHT22;38624;53.242;6.974;2023-02-28T07:13:55;3.20;99.90
52731;DHT22;38624;53.242;6.974;2023-02-28T07:16:22;3.10;99.90
52731;DHT22;38624;53.242;6.974;2023-02-28T07:18:48;2.90;99.90
52731;DHT22;38624;53.242;6.974;2023-02-28T07:21:14;3.00;99.90
52731;DHT22;38624;53.242;6.974;2023-02-28T07:23:40;3.00;99.90
52731;DHT22;38624;53.242;6.974;2023-02-28T07:26:11;3.10;99.90
52731;DHT22;38624;53.242;6.974;2023-02-28T07:28:38;3.70;99.90
52731;DHT22;38624;53.242;6.974;2023-02-28T07:31:07;4.50;99.90
52731;DHT22;38624;53.242;6.974;2023-02-28T07:33:33;4.30;99.90
52731;DHT22;38624;53.242;6.974;2023-02-28T07:36:10;4.60;99.90
52731;DHT22;38624;53.242;6.974;2023-02-28T07:38:44;3.40;99.90
52731;DHT22;38624;53.242;6.974;2023-02-28T07:41:10;3.40;99.90
52731;DHT22;38624;53.242;6.974;2023-02-28T07:43:36;4.30;99.90
52731;DHT22;38624;53.242;6.974;2023-02-28T07:46:08;4.60;99.90
52731;DHT22;38624;53.242;6.974;2023-02-28T07:48:34;3.50;99.90
52731;DHT22;38624;53.242;6.974;2023-02-28T07:51:00;3.50;99.90
52731;DHT22;38624;53.242;6.974;2023-02-28T07:53:27;4.40;99.90
52731;DHT22;38624;53.242;6.974;2023-02-28T07:56:00;4.70;99.90
52731;DHT22;38624;53.242;6.974;2023-02-28T07:58:27;3.80;99.90
52731;DHT22;38624;53.242;6.974;2023-02-28T08:00:54;3.90;99.90
52731;DHT22;38624;53.242;6.974;2023-02-28T08:03:21;5.10;99.90
52731;DHT22;38624;53.242;6.974;2023-02-28T08:05:48;4.40;99.90
52731;DHT22;38624;53.242;6.974;2023-02-28T08:08:14;4.50;99.90
52731;DHT22;38624;53.242;6.974;2023-02-28T08:10:40;3.90;99.90
52731;DHT22;38624;53.242;6.974;2023-02-28T08:13:07;3.70;99.90
52731;DHT22;38624;53.242;6.974;2023-02-28T08:15:32;3.60;99.90
52731;DHT22;38624;53.242;6.974;2023-02-28T08:17:58;3.60;99.90
52731;DHT22;38624;53.242;6.974;2023-02-28T08:20:24;3.60;99.90
52731;DHT22;38624;53.242;6.974;2023-02-28T08:22:50;3.90;99.90
52731;DHT22;38624;53.242;6.974;2023-02-28T08:25:16;3.50;99.90
52731;DHT22;38624;53.242;6.974;2023-02-28T08:27:41;4.00;99.90
52731;DHT22;38624;53.242;6.974;2023-02-28T08:30:10;3.40;99.90
52731;DHT22;38624;53.242;6.974;2023-02-28T08:32:36;3.40;99.90
52731;DHT22;38624;53.242;6.974;2023-02-28T08:35:01;3.40;99.90
52731;DHT22;38624;53.242;6.974;2023-02-28T08:37:28;3.50;99.90
52731;DHT22;38624;53.242;6.974;2023-02-28T08:39:54;3.50;99.90
52731;DHT22;38624;53.242;6.974;2023-02-28T08:42:19;4.40;99.90
52731;DHT22;38624;53.242;6.974;2023-02-28T08:44:45;4.50;99.90
52731;DHT22;38624;53.242;6.974;2023-02-28T08:47:11;3.40;99.90
52731;DHT22;38624;53.242;6.974;2023-02-28T08:49:37;3.60;99.90
52731;DHT22;38624;53.242;6.974;2023-02-28T08:52:03;3.30;99.90
52731;DHT22;38624;53.242;6.974;2023-02-28T08:54:29;3.60;99.90
52731;DHT22;38624;53.242;6.974;2023-02-28T08:56:57;4.00;99.90
52731;DHT22;38624;53.242;6.974;2023-02-28T08:59:23;3.20;99.90
52731;DHT22;38624;53.242;6.974;2023-02-28T09:01:48;4.20;99.90
52731;DHT22;38624;53.242;6.974;2023-02-28T09:04:14;3.60;99.90
52731;DHT22;38624;53.242;6.974;2023-02-28T09:06:40;3.40;99.90
52731;DHT22;38624;53.242;6.974;2023-02-28T09:09:05;3.50;99.90
52731;DHT22;38624;53.242;6.974;2023-02-28T09:11:33;3.50;99.90
52731;DHT22;38624;53.242;6.974;2023-02-28T09:14:00;3.70;99.90
52731;DHT22;38624;53.242;6.974;2023-02-28T09:16:26;3.50;99.90
52731;DHT22;38624;53.242;6.974;2023-02-28T09:18:52;3.60;99.90
52731;DHT22;38624;53.242;6.974;2023-02-28T09:21:19;3.70;99.90
52731;DHT22;38624;53.242;6.974;2023-02-28T09:23:45;3.70;99.90
52731;DHT22;38624;53.242;6.974;2023-02-28T09:26:19;4.20;99.90
52731;DHT22;38624;53.242;6.974;2023-02-28T09:28:45;3.70;99.90
52731;DHT22;38624;53.242;6.974;2023-02-28T09:31:17;4.60;99.90
52731;DHT22;38624;53.242;6.974;2023-02-28T09:33:50;3.80;99.90
52731;DHT22;38624;53.242;6.974;2023-02-28T09:36:16;3.90;99.90
52731;DHT22;38624;53.242;6.974;2023-02-28T09:38:42;3.90;99.90
52731;DHT22;38624;53.242;6.974;2023-02-28T09:41:15;4.70;99.90
52731;DHT22;38624;53.242;6.974;2023-02-28T09:43:46;4.50;99.90
52731;DHT22;38624;53.242;6.974;2023-02-28T09:48:57;4.00;99.90
52731;DHT22;38624;53.242;6.974;2023-02-28T09:51:34;4.40;99.90
52731;DHT22;38624;53.242;6.974;2023-02-28T09:54:02;4.10;99.90
52731;DHT22;38624;53.242;6.974;2023-02-28T09:56:33;4.10;99.90
52731;DHT22;38624;53.242;6.974;2023-02-28T09:59:12;4.70;99.90
52731;DHT22;38624;53.242;6.974;2023-02-28T10:02:23;4.20;99.90
52731;DHT22;38624;53.242;6.974;2023-02-28T10:04:47;4.20;99.90
52731;DHT22;38624;53.242;6.974;2023-02-28T10:10:43;4.20;99.90
52731;DHT22;38624;53.242;6.974;2023-02-28T10:16:46;4.50;99.90
52731;DHT22;38624;53.242;6.974;2023-02-28T10:19:20;4.70;99.90
52731;DHT22;38624;53.242;6.974;2023-02-28T10:22:00;5.50;99.90
52731;DHT22;38624;53.242;6.974;2023-02-28T10:24:37;5.40;99.90
52731;DHT22;38624;53.242;6.974;2023-02-28T10:27:21;5.60;99.90
52731;DHT22;38624;53.242;6.974;2023-02-28T10:29:50;5.80;99.90
52731;DHT22;38624;53.242;6.974;2023-02-28T10:32:18;5.90;99.90
52731;DHT22;38624;53.242;6.974;2023-02-28T10:34:44;6.00;99.90
52731;DHT22;38624;53.242;6.974;2023-02-28T10:37:11;6.10;99.90
52731;DHT22;38624;53.242;6.974;2023-02-28T10:39:46;6.70;99.90
52731;DHT22;38624;53.242;6.974;2023-02-28T10:42:38;7.60;99.90
52731;DHT22;38624;53.242;6.974;2023-02-28T10:45:17;8.50;99.90
52731;DHT22;38624;53.242;6.974;2023-02-28T10:48:26;8.20;99.90
52731;DHT22;38624;53.242;6.974;2023-02-28T10:50:53;8.50;99.90
52731;DHT22;38624;53.242;6.974;2023-02-28T10:59:00;10.60;99.90
52731;DHT22;38624;53.242;6.974;2023-02-28T11:04:20;10.90;99.90
52731;DHT22;38624;53.242;6.974;2023-02-28T11:07:21;10.70;99.90
52731;DHT22;38624;53.242;6.974;2023-02-28T11:09:50;10.10;99.90
52731;DHT22;38624;53.242;6.974;2023-02-28T11:12:37;10.40;99.90
52731;DHT22;38624;53.242;6.974;2023-02-28T11:15:07;9.70;99.90
52731;DHT22;38624;53.242;6.974;2023-02-28T11:17:44;10.00;99.90
52731;DHT22;38624;53.242;6.974;2023-02-28T11:20:25;10.50;99.90
52731;DHT22;38624;53.242;6.974;2023-02-28T11:22:52;10.50;99.90
52731;DHT22;38624;53.242;6.974;2023-02-28T11:25:38;10.80;99.90
52731;DHT22;38624;53.242;6.974;2023-02-28T11:28:09;11.00;99.90
52731;DHT22;38624;53.242;6.974;2023-02-28T11:33:43;11.70;99.90
52731;DHT22;38624;53.242;6.974;2023-02-28T11:36:36;11.70;99.90
52731;DHT22;38624;53.242;6.974;2023-02-28T11:39:11;10.70;99.90
52731;DHT22;38624;53.242;6.974;2023-02-28T11:42:17;10.20;99.90
52731;DHT22;38624;53.242;6.974;2023-02-28T11:45:15;9.70;99.90
52731;DHT22;38624;53.242;6.974;2023-02-28T11:48:10;10.50;99.90
52731;DHT22;38624;53.242;6.974;2023-02-28T11:53:22;12.40;99.90
52731;DHT22;38624;53.242;6.974;2023-02-28T11:55:56;12.30;99.90
52731;DHT22;38624;53.242;6.974;2023-02-28T11:58:38;12.10;99.90
52731;DHT22;38624;53.242;6.974;2023-02-28T12:01:31;12.00;99.90
52731;DHT22;38624;53.242;6.974;2023-02-28T12:04:04;13.20;99.90
52731;DHT22;38624;53.242;6.974;2023-02-28T12:06:57;12.70;99.90
52731;DHT22;38624;53.242;6.974;2023-02-28T12:20:25;16.60;97.00
52731;DHT22;38624;53.242;6.974;2023-02-28T12:31:39;19.20;88.10
52731;DHT22;38624;53.242;6.974;2023-02-28T12:34:15;21.00;80.20
52731;DHT22;38624;53.242;6.974;2023-02-28T12:36:43;23.00;71.50
52731;DHT22;38624;53.242;6.974;2023-02-28T12:39:19;24.10;69.30
52731;DHT22;38624;53.242;6.974;2023-02-28T12:41:59;24.50;58.20
52731;DHT22;38624;53.242;6.974;2023-02-28T12:44:34;25.50;56.70
52731;DHT22;38624;53.242;6.974;2023-02-28T12:47:09;25.80;56.60
52731;DHT22;38624;53.242;6.974;2023-02-28T12:49:41;26.80;54.10
52731;DHT22;38624;53.242;6.974;2023-02-28T12:52:08;27.70;56.50
52731;DHT22;38624;53.242;6.974;2023-02-28T12:54:49;27.70;55.10
52731;DHT22;38624;53.242;6.974;2023-02-28T13:00:21;28.00;48.70
52731;DHT22;38624;53.242;6.974;2023-02-28T13:10:49;27.80;50.60
52731;DHT22;38624;53.242;6.974;2023-02-28T13:13:29;28.20;49.90
52731;DHT22;38624;53.242;6.974;2023-02-28T13:16:10;27.90;48.40
52731;DHT22;38624;53.242;6.974;2023-02-28T13:21:07;28.00;48.50
52731;DHT22;38624;53.242;6.974;2023-02-28T13:26:12;28.20;43.80
52731;DHT22;38624;53.242;6.974;2023-02-28T13:31:16;28.40;43.70
52731;DHT22;38624;53.242;6.974;2023-02-28T13:38:48;28.20;46.20
52731;DHT22;38624;53.242;6.974;2023-02-28T13:46:28;28.40;44.10
52731;DHT22;38624;53.242;6.974;2023-02-28T13:48:54;28.10;45.00
52731;DHT22;38624;53.242;6.974;2023-02-28T13:51:37;27.80;44.80
52731;DHT22;38624;53.242;6.974;2023-02-28T14:02:40;23.20;47.40
52731;DHT22;38624;53.242;6.974;2023-02-28T14:05:21;23.20;48.60
52731;DHT22;38624;53.242;6.974;2023-02-28T14:07:54;22.60;47.90
52731;DHT22;38624;53.242;6.974;2023-02-28T14:10:28;22.30;49.00
52731;DHT22;38624;53.242;6.974;2023-02-28T14:13:36;21.70;49.10
52731;DHT22;38624;53.242;6.974;2023-02-28T14:16:01;21.60;48.60
52731;DHT22;38624;53.242;6.974;2023-02-28T14:18:35;21.80;49.20
52731;DHT22;38624;53.242;6.974;2023-02-28T14:21:25;21.30;49.50
52731;DHT22;38624;53.242;6.974;2023-02-28T14:27:03;20.20;49.00
52731;DHT22;38624;53.242;6.974;2023-02-28T14:32:44;19.00;52.20
52731;DHT22;38624;53.242;6.974;2023-02-28T14:38:31;17.90;54.10
52731;DHT22;38624;53.242;6.974;2023-02-28T14:41:02;17.90;53.90
52731;DHT22;38624;53.242;6.974;2023-02-28T14:43:28;17.40;53.70
52731;DHT22;38624;53.242;6.974;2023-02-28T14:46:00;17.50;54.50
52731;DHT22;38624;53.242;6.974;2023-02-28T14:48:26;17.20;53.90
52731;DHT22;38624;53.242;6.974;2023-02-28T14:50:55;17.30;54.30
52731;DHT22;38624;53.242;6.974;2023-02-28T14:53:25;17.20;53.60
52731;DHT22;38624;53.242;6.974;2023-02-28T14:55:51;16.90;53.20
52731;DHT22;38624;53.242;6.974;2023-02-28T14:58:33;16.70;53.70
52731;DHT22;38624;53.242;6.974;2023-02-28T15:01:01;16.60;54.30
52731;DHT22;38624;53.242;6.974;2023-02-28T15:03:34;16.20;54.80
52731;DHT22;38624;53.242;6.974;2023-02-28T15:06:03;15.60;55.00
52731;DHT22;38624;53.242;6.974;2023-02-28T15:08:30;15.00;56.30
52731;DHT22;38624;53.242;6.974;2023-02-28T15:11:14;14.80;56.90
52731;DHT22;38624;53.242;6.974;2023-02-28T15:13:55;14.60;57.30
52731;DHT22;38624;53.242;6.974;2023-02-28T15:16:28;14.50;57.40
52731;DHT22;38624;53.242;6.974;2023-02-28T15:19:12;14.60;57.70
52731;DHT22;38624;53.242;6.974;2023-02-28T15:21:44;15.00;58.00
52731;DHT22;38624;53.242;6.974;2023-02-28T15:24:20;15.40;60.00
52731;DHT22;38624;53.242;6.974;2023-02-28T15:26:53;16.00;59.60
52731;DHT22;38624;53.242;6.974;2023-02-28T15:29:22;16.30;58.90
52731;DHT22;38624;53.242;6.974;2023-02-28T15:32:19;16.20;58.10
52731;DHT22;38624;53.242;6.974;2023-02-28T15:34:38;16.00;58.20
52731;DHT22;38624;53.242;6.974;2023-02-28T15:40:11;14.20;59.90
52731;DHT22;38624;53.242;6.974;2023-02-28T15:42:37;13.30;64.10
52731;DHT22;38624;53.242;6.974;2023-02-28T15:45:03;12.60;66.50
52731;DHT22;38624;53.242;6.974;2023-02-28T15:47:30;12.10;67.00
52731;DHT22;38624;53.242;6.974;2023-02-28T15:50:01;12.00;67.40
52731;DHT22;38624;53.242;6.974;2023-02-28T15:55:11;12.40;66.20
52731;DHT22;38624;53.242;6.974;2023-02-28T15:57:42;13.00;66.50
52731;DHT22;38624;53.242;6.974;2023-02-28T16:00:15;13.10;65.40
52731;DHT22;38624;53.242;6.974;2023-02-28T16:02:41;13.30;65.30
52731;DHT22;38624;53.242;6.974;2023-02-28T16:07:34;13.40;63.70
52731;DHT22;38624;53.242;6.974;2023-02-28T16:10:00;13.60;63.80
52731;DHT22;38624;53.242;6.974;2023-02-28T16:12:32;13.50;63.70
52731;DHT22;38624;53.242;6.974;2023-02-28T16:14:59;13.30;64.10
52731;DHT22;38624;53.242;6.974;2023-02-28T16:17:31;13.10;64.80
52731;DHT22;38624;53.242;6.974;2023-02-28T16:19:58;12.70;64.60
52731;DHT22;38624;53.242;6.974;2023-02-28T16:22:24;12.60;65.20
52731;DHT22;38624;53.242;6.974;2023-02-28T16:24:50;12.30;66.30
52731;DHT22;38624;53.242;6.974;2023-02-28T16:27:20;11.90;66.90
52731;DHT22;38624;53.242;6.974;2023-02-28T16:29:47;12.00;67.80
52731;DHT22;38624;53.242;6.974;2023-02-28T16:32:14;11.60;67.80
52731;DHT22;38624;53.242;6.974;2023-02-28T16:34:44;11.70;69.30
52731;DHT22;38624;53.242;6.974;2023-02-28T16:37:12;11.80;69.60
52731;DHT22;38624;53.242;6.974;2023-02-28T16:39:39;11.80;70.30
52731;DHT22;38624;53.242;6.974;2023-02-28T16:42:05;11.60;69.50
52731;DHT22;38624;53.242;6.974;2023-02-28T16:44:34;11.40;70.70
52731;DHT22;38624;53.242;6.974;2023-02-28T16:47:00;11.30;71.10
52731;DHT22;38624;53.242;6.974;2023-02-28T16:49:26;11.20;72.60
52731;DHT22;38624;53.242;6.974;2023-02-28T16:51:52;10.90;72.10
52731;DHT22;38624;53.242;6.974;2023-02-28T16:54:18;10.60;72.80
52731;DHT22;38624;53.242;6.974;2023-02-28T16:56:46;10.30;73.40
52731;DHT22;38624;53.242;6.974;2023-02-28T16:59:12;10.00;74.30
52731;DHT22;38624;53.242;6.974;2023-02-28T17:01:39;9.00;76.10
52731;DHT22;38624;53.242;6.974;2023-02-28T17:04:04;9.20;80.70
52731;DHT22;38624;53.242;6.974;2023-02-28T17:06:30;8.90;82.40
52731;DHT22;38624;53.242;6.974;2023-02-28T17:08:57;8.60;85.20
52731;DHT22;38624;53.242;6.974;2023-02-28T17:11:23;8.40;89.30
52731;DHT22;38624;53.242;6.974;2023-02-28T17:13:49;8.00;92.90
52731;DHT22;38624;53.242;6.974;2023-02-28T17:18:41;7.60;99.90
52731;DHT22;38624;53.242;6.974;2023-02-28T17:21:13;7.50;99.90
52731;DHT22;38624;53.242;6.974;2023-02-28T17:23:39;7.30;99.90
52731;DHT22;38624;53.242;6.974;2023-02-28T17:26:05;7.20;99.90
52731;DHT22;38624;53.242;6.974;2023-02-28T17:28:32;6.90;99.90
52731;DHT22;38624;53.242;6.974;2023-02-28T17:30:58;6.80;99.90
52731;DHT22;38624;53.242;6.974;2023-02-28T17:33:23;6.70;99.90
52731;DHT22;38624;53.242;6.974;2023-02-28T17:35:49;6.50;99.90
52731;DHT22;38624;53.242;6.974;2023-02-28T17:38:19;6.30;99.90
52731;DHT22;38624;53.242;6.974;2023-02-28T17:40:45;6.20;99.90
52731;DHT22;38624;53.242;6.974;2023-02-28T17:43:11;6.00;99.90
52731;DHT22;38624;53.242;6.974;2023-02-28T17:45:37;5.90;99.90
52731;DHT22;38624;53.242;6.974;2023-02-28T17:48:03;5.90;99.90
52731;DHT22;38624;53.242;6.974;2023-02-28T17:50:29;5.60;99.90
52731;DHT22;38624;53.242;6.974;2023-02-28T17:52:54;5.60;99.90
52731;DHT22;38624;53.242;6.974;2023-02-28T17:55:20;5.40;99.90
52731;DHT22;38624;53.242;6.974;2023-02-28T17:57:46;5.30;99.90
52731;DHT22;38624;53.242;6.974;2023-02-28T18:00:18;5.30;99.90
52731;DHT22;38624;53.242;6.974;2023-02-28T18:02:44;5.10;99.90
52731;DHT22;38624;53.242;6.974;2023-02-28T18:05:10;5.00;99.90